logo tempoitalia

Diretta Meteo Dolny Hricov, Slovacchialunedì 31 agosto ore 07:00

Mappa
Sereno 14 °C Sereno 24 Ore: T.min 12 T.max 28
Ponente Est Km/h 7.4 Punto di rugiada: 13 °C Umidità: 93% Visibilità: 10 Km
Il sole sorge alle: 06:00 Il sole tramonta alle: 19:31
31 Agosto 2026 07:00 tempo osservato: Sereno Sereno 14 93 1016 vento: Nord E 7.4
31 Agosto 2026 06:30 tempo osservato: Sereno Sereno 14 87 1016 vento: Nord E 9.3
31 Agosto 2026 06:00 tempo osservato: Sereno Sereno 12 100 1016 vento: Nord N 5.5
31 Agosto 2026 05:30 tempo osservato: Sereno Sereno 13 93 1017 vento: Nord N 3.7
31 Agosto 2026 05:00 tempo osservato: Sereno Sereno 13 93 1016 vento: Nord N 1.8
31 Agosto 2026 04:30 tempo osservato: Sereno Sereno 13 93 1017 vento: Nord N 1.8
31 Agosto 2026 04:00 tempo osservato: Sereno Sereno 13 100 1017 vento: Nord N 1.8
31 Agosto 2026 03:30 tempo osservato: Sereno Sereno 13 93 1017 vento: Nord N 1.8
31 Agosto 2026 03:00 tempo osservato: Sereno Sereno 13 93 1017 vento: Nord N 1.8
31 Agosto 2026 02:30 tempo osservato: Sereno Sereno 14 93 1017 vento: Nord N 3.7
31 Agosto 2026 02:00 tempo osservato: Sereno Sereno 14 93 1017 vento: Nord N 0
31 Agosto 2026 01:30 tempo osservato: Sereno Sereno 14 100 1017 vento: Nord N 1.8
31 Agosto 2026 01:00 tempo osservato: Sereno Sereno 15 93 1017 vento: Nord N 0
31 Agosto 2026 00:30 tempo osservato: Sereno Sereno 15 87 1017 vento: Nord N 0
31 Agosto 2026 00:00 tempo osservato: Sereno Sereno 15 93 1017 vento: Nord N 0
30 Agosto 2026 23:30 tempo osservato: Sereno Sereno 16 82 1017 vento: Nord N 1.8
30 Agosto 2026 23:00 tempo osservato: Sereno Sereno 16 87 1017 vento: Nord N 0
30 Agosto 2026 22:30 tempo osservato: Sereno Sereno 17 77 1017 vento: Nord N 3.7
30 Agosto 2026 22:00 tempo osservato: Sereno Sereno 17 88 1016 vento: Nord N 3.7
30 Agosto 2026 21:30 tempo osservato: Sereno Sereno 19 72 1016 vento: Nord N 0
30 Agosto 2026 21:00 tempo osservato: Sereno Sereno 19 68 1016 vento: Nord N 3.7
30 Agosto 2026 20:30 tempo osservato: Sereno Sereno 20 64 1016 vento: Nord N 3.7
30 Agosto 2026 20:00 tempo osservato: Sereno Sereno 22 56 1016 vento: Nord N 3.7
30 Agosto 2026 19:30 tempo osservato: Sereno Sereno 23 60 1015 vento: Nord N 3.7
30 Agosto 2026 19:00 tempo osservato: Sereno Sereno 27 39 1015 vento: Nord N 5.5
30 Agosto 2026 18:30 tempo osservato: Sereno Sereno 27 36 1015 vento: Nord SO 9.3
30 Agosto 2026 18:00 tempo osservato: Sereno Sereno 28 37 1015 vento: Nord SO 11.1
30 Agosto 2026 17:30 tempo osservato: Sereno Sereno 27 42 1015 vento: Nord SO 9.3
30 Agosto 2026 17:00 tempo osservato: Sereno Sereno 28 34 1015 vento: Nord SO 14.8
30 Agosto 2026 16:30 tempo osservato: Sereno Sereno 28 34 1015 vento: Nord S/SO 13
30 Agosto 2026 16:00 tempo osservato: Sereno Sereno 28 37 1016 vento: Nord O/SO 18.5
30 Agosto 2026 15:30 tempo osservato: Sereno Sereno 28 34 1016 vento: Nord S/SO 14.8
30 Agosto 2026 15:00 tempo osservato: Poco Nuvoloso Poco Nuvoloso 28 39 1016 vento: Nord SO 9.3
30 Agosto 2026 14:30 tempo osservato: Poco Nuvoloso Poco Nuvoloso 27 39 1016 vento: Nord O/SO 9.3
30 Agosto 2026 14:00 tempo osservato: Poco Nuvoloso Poco Nuvoloso 27 39 1016 vento: Nord SO 13
30 Agosto 2026 13:30 tempo osservato: Poco Nuvoloso Poco Nuvoloso 27 39 1016 vento: Nord S/SO 9.3
30 Agosto 2026 13:00 tempo osservato: Poco Nuvoloso Poco Nuvoloso 26 39 1017 vento: Nord S/SO 11.1
30 Agosto 2026 12:30 tempo osservato: Poco Nuvoloso Poco Nuvoloso 26 41 1017 vento: Nord O/SO 14.8
30 Agosto 2026 12:00 tempo osservato: Poco Nuvoloso Poco Nuvoloso 26 41 1017 vento: Nord SO 13
30 Agosto 2026 11:30 tempo osservato: Poco Nuvoloso Poco Nuvoloso 24 53 1018 vento: Nord O/SO 14.8
30 Agosto 2026 11:00 tempo osservato: Poco Nuvoloso Poco Nuvoloso 23 56 1018 vento: Nord N 3.7
30 Agosto 2026 10:30 tempo osservato: Poco Nuvoloso Poco Nuvoloso 22 60 1018 vento: Nord N 1.8
30 Agosto 2026 10:00 tempo osservato: Poco Nuvoloso Poco Nuvoloso 20 68 1018 vento: Nord N 1.8
30 Agosto 2026 09:30 tempo osservato: Sereno Sereno 19 72 1018 vento: Nord N 1.8
30 Agosto 2026 09:00 tempo osservato: Sereno Sereno 17 82 1018 vento: Nord N 5.5
30 Agosto 2026 08:30 tempo osservato: Sereno Sereno 16 82 1018 vento: Nord N 3.7
30 Agosto 2026 08:00 tempo osservato: Sereno Sereno 15 87 1018 vento: Nord N 3.7